Colonia La Pastoril, Argentina
Current Conditions -  °F | °C
As of 6:00 AM on Wednesday 28 Jan 2015 (Local Time) from SAZN Reporting Station
Clear Clear  
Wind Chill: 17°   Ceiling: Unl
Heat Index: 17°   Visibility: 6mi
Dew Point:   Wind: 3mph
Humidity: 48%   Direction: 230°SW
Pressure: 29.91"   Gusts: NA
Location:  36.33°S, 67.06°W
Report Text: SAZN 280900Z 23003KT CAVOK 17/06 Q1013
Loading
Personal Weather Stations






























Interactive Weather Map New forecast layout! Learn more

10-Day Weather Forecast

Advertisements
Track Severe Weather on mobile